Time;durP1;ratioP1;P1;durP2;ratioP2;P2;SDS_P1;SDS_P2;PMS_P1;PMS_P2;Temp;Humidity;BMP_temperature;BMP_pressure;BME280_temperature;BME280_humidity;BME280_pressure;Samples;Min_cycle;Max_cycle;Signal;HPM_P1;HPM_P2
2021/06/14 00:01:57;;;;;;;17.58;7.75;;;;;;;12.07;100.00;102341.38;5272904;28;20534;-82
2021/06/14 00:04:28;;;;;;;18.23;7.78;;;;;;;12.04;100.00;102339.78;5273251;28;20047;-82
2021/06/14 00:06:58;;;;;;;16.88;7.85;;;;;;;12.03;100.00;102340.78;5272889;28;20332;-82
2021/06/14 00:09:30;;;;;;;17.83;7.82;;;;;;;12.02;100.00;102339.09;5273301;28;20026;-82
2021/06/14 00:12:03;;;;;;;21.08;8.23;;;;;;;11.98;100.00;102337.66;5273493;28;20032;-82
2021/06/14 00:14:33;;;;;;;17.17;7.13;;;;;;;11.95;100.00;102340.66;5274082;28;20026;-82
2021/06/14 00:17:04;;;;;;;17.27;8.77;;;;;;;11.92;100.00;102343.59;5273980;28;20106;-82
2021/06/14 00:19:34;;;;;;;16.05;7.78;;;;;;;11.90;100.00;102326.78;5273505;28;20016;-82
2021/06/14 00:22:05;;;;;;;14.02;7.32;;;;;;;11.89;100.00;102328.56;5273259;28;20051;-82
2021/06/14 00:24:35;;;;;;;18.05;7.20;;;;;;;11.84;100.00;102319.22;5273144;28;20027;-82
2021/06/14 00:27:06;;;;;;;16.33;7.65;;;;;;;11.82;100.00;102323.91;5273523;28;20111;-82
2021/06/14 00:29:37;;;;;;;20.92;7.53;;;;;;;11.74;100.00;102329.94;5270534;28;20052;-82
2021/06/14 00:32:08;;;;;;;15.55;7.40;;;;;;;11.71;100.00;102326.69;5266964;28;20038;-82
2021/06/14 00:34:38;;;;;;;17.17;7.60;;;;;;;11.71;100.00;102324.00;5273259;28;20024;-82
2021/06/14 00:37:09;;;;;;;13.52;7.85;;;;;;;11.67;100.00;102320.72;5272735;28;20031;-82
2021/06/14 00:39:39;;;;;;;16.60;7.18;;;;;;;11.63;100.00;102312.06;5272648;28;20107;-82
2021/06/14 00:42:10;;;;;;;20.42;9.45;;;;;;;11.59;100.00;102318.72;5269128;28;20372;-82
2021/06/14 00:44:40;;;;;;;18.77;7.93;;;;;;;11.55;100.00;102320.00;5267565;28;20447;-82
2021/06/14 00:47:11;;;;;;;18.95;8.27;;;;;;;11.53;100.00;102318.41;5268635;28;20066;-82
2021/06/14 00:49:41;;;;;;;16.55;8.00;;;;;;;11.50;100.00;102318.72;5268234;28;20020;-82
2021/06/14 00:52:12;;;;;;;18.77;8.07;;;;;;;11.46;100.00;102320.81;5268201;28;20026;-82
2021/06/14 00:54:42;;;;;;;17.67;8.48;;;;;;;11.43;100.00;102321.06;5267648;28;20027;-82
2021/06/14 00:57:13;;;;;;;23.38;8.48;;;;;;;11.43;100.00;102318.38;5247318;28;20030;-82
2021/06/14 00:59:44;;;;;;;16.33;7.93;;;;;;;11.41;100.00;102321.22;5274337;28;20023;-82
2021/06/14 01:02:15;;;;;;;21.38;8.07;;;;;;;11.38;100.00;102317.94;5273569;28;20032;-82
2021/06/14 01:04:46;;;;;;;17.52;7.78;;;;;;;11.34;100.00;102316.50;5272963;28;20024;-82
2021/06/14 01:07:17;;;;;;;22.50;8.70;;;;;;;11.29;100.00;102319.59;5271955;28;20391;-82
2021/06/14 01:09:47;;;;;;;19.70;8.30;;;;;;;11.27;100.00;102318.03;5273248;28;20398;-82
2021/06/14 01:12:50;;;;;;;22.10;8.10;;;;;;;11.22;100.00;102309.53;5256430;28;20110;-82
2021/06/14 01:15:38;;;;;;;16.17;7.97;;;;;;;11.20;100.00;102303.47;5267392;28;20046;-82
2021/06/14 01:18:14;;;;;;;18.55;8.65;;;;;;;11.19;100.00;102297.22;5267064;28;20049;-82
2021/06/14 01:21:06;;;;;;;20.45;8.35;;;;;;;11.16;100.00;102297.50;5266793;28;20089;-82
2021/06/14 01:23:59;;;;;;;16.05;7.07;;;;;;;11.08;100.00;102287.41;5267077;28;20395;-82
2021/06/14 01:26:40;;;;;;;15.30;8.15;;;;;;;11.04;100.00;102280.59;5271227;28;20035;-82
2021/06/14 01:29:11;;;;;;;17.45;8.13;;;;;;;11.02;100.00;102279.91;5272228;28;20107;-82
2021/06/14 01:31:43;;;;;;;18.48;8.07;;;;;;;11.01;100.00;102275.53;5272766;28;20499;-82
2021/06/14 01:34:13;;;;;;;14.98;7.50;;;;;;;10.96;100.00;102271.53;5272452;28;20031;-82
2021/06/14 01:36:45;;;;;;;18.48;7.85;;;;;;;10.90;100.00;102275.63;5272834;28;20028;-82
2021/06/14 01:39:17;;;;;;;17.98;8.10;;;;;;;10.83;100.00;102266.38;5272314;28;20038;-82
2021/06/14 01:41:48;;;;;;;23.50;9.25;;;;;;;10.77;100.00;102262.41;5272557;28;20024;-82
2021/06/14 01:44:21;;;;;;;15.88;7.60;;;;;;;10.77;100.00;102270.44;5272732;28;20031;-82
2021/06/14 01:46:55;;;;;;;18.75;7.65;;;;;;;10.74;100.00;102257.28;5272673;28;20016;-82
2021/06/14 01:49:27;;;;;;;21.02;9.50;;;;;;;10.70;100.00;102263.94;5272632;28;20058;-82
2021/06/14 01:51:58;;;;;;;19.27;8.82;;;;;;;10.66;100.00;102264.31;5273013;28;20113;-82
2021/06/14 01:54:29;;;;;;;18.48;8.30;;;;;;;10.61;100.00;102251.28;5273002;28;20016;-82
2021/06/14 01:57:02;;;;;;;18.88;8.75;;;;;;;10.55;100.00;102251.84;5278376;28;20042;-82
2021/06/14 01:59:36;;;;;;;21.67;9.52;;;;;;;10.51;100.00;102251.22;5280479;28;20020;-82
2021/06/14 02:02:07;;;;;;;17.13;8.95;;;;;;;10.49;100.00;102257.69;5259759;28;20030;-82
2021/06/14 02:04:44;;;;;;;15.95;8.52;;;;;;;10.45;100.00;102248.25;5273324;28;20502;-82
2021/06/14 02:07:16;;;;;;;17.63;8.32;;;;;;;10.43;100.00;102245.66;5272999;28;20561;-82
2021/06/14 02:09:47;;;;;;;15.38;7.85;;;;;;;10.43;100.00;102248.34;5270181;28;20020;-82
2021/06/14 02:12:18;;;;;;;23.17;9.38;;;;;;;10.46;100.00;102253.47;5265637;28;20032;-82
2021/06/14 02:14:50;;;;;;;24.40;9.30;;;;;;;10.47;100.00;102248.94;5264505;28;20016;-82
2021/06/14 02:17:25;;;;;;;21.60;9.43;;;;;;;10.43;100.00;102242.97;5265234;28;20060;-82
2021/06/14 02:19:58;;;;;;;20.55;8.80;;;;;;;10.42;100.00;102252.00;5251754;28;20024;-82
2021/06/14 02:22:28;;;;;;;19.05;9.02;;;;;;;10.38;100.00;102235.31;5267165;28;20390;-82
2021/06/14 02:24:58;;;;;;;19.27;9.25;;;;;;;10.36;100.00;102242.66;5274247;28;20218;-81
2021/06/14 02:27:29;;;;;;;16.90;8.30;;;;;;;10.30;100.00;102229.78;5273511;28;20016;-82
2021/06/14 02:30:07;;;;;;;16.60;8.60;;;;;;;10.25;100.00;102223.97;5266699;28;20032;-82
2021/06/14 02:32:37;;;;;;;21.15;8.70;;;;;;;10.21;100.00;102227.00;5269877;28;20168;-82
2021/06/14 02:35:11;;;;;;;22.73;9.05;;;;;;;10.13;100.00;102220.44;5271941;28;20084;-82
2021/06/14 02:37:52;;;;;;;20.58;8.52;;;;;;;10.11;100.00;102213.50;5273219;28;20028;-82
2021/06/14 02:40:26;;;;;;;23.70;9.93;;;;;;;10.11;100.00;102214.38;5272741;28;20024;-82
2021/06/14 02:43:00;;;;;;;20.23;8.93;;;;;;;10.05;100.00;102216.72;5273176;28;20479;-82
2021/06/14 02:45:31;;;;;;;19.48;9.23;;;;;;;10.01;100.00;102216.13;5272776;28;20094;-82
2021/06/14 02:48:04;;;;;;;22.83;9.88;;;;;;;9.94;100.00;102203.34;5272373;28;20074;-82
2021/06/14 02:50:36;;;;;;;26.27;9.88;;;;;;;9.92;100.00;102211.53;5272476;28;20478;-82
2021/06/14 02:53:12;;;;;;;20.92;9.82;;;;;;;9.97;100.00;102220.03;5271749;28;20028;-82
2021/06/14 02:56:09;;;;;;;30.17;10.85;;;;;;;9.99;100.00;102212.72;5272498;28;20014;-82
2021/06/14 02:58:44;;;;;;;21.08;10.05;;;;;;;10.00;100.00;102211.75;5273198;28;20040;-82
2021/06/14 03:01:14;;;;;;;22.13;10.02;;;;;;;10.00;100.00;102208.22;5273000;28;20028;-83
2021/06/14 03:03:46;;;;;;;23.65;10.60;;;;;;;10.00;100.00;102201.03;5270611;28;20058;-80
2021/06/14 03:06:18;;;;;;;26.05;10.95;;;;;;;10.02;100.00;102200.88;5270031;28;20036;-80
2021/06/14 03:08:49;;;;;;;24.15;10.40;;;;;;;10.06;100.00;102194.28;5274683;28;20016;-80
2021/06/14 03:11:24;;;;;;;22.75;10.57;;;;;;;10.07;100.00;102194.16;5274567;28;20111;-80
2021/06/14 03:13:56;;;;;;;25.63;10.88;;;;;;;10.07;100.00;102199.50;5273502;28;20462;-79
2021/06/14 03:16:27;;;;;;;26.38;11.18;;;;;;;10.11;100.00;102195.59;5275658;28;20055;-82
2021/06/14 03:18:59;;;;;;;32.30;11.73;;;;;;;10.12;100.00;102188.41;5275523;28;20020;-81
2021/06/14 03:21:32;;;;;;;26.50;11.25;;;;;;;10.11;100.00;102187.56;5275437;28;20556;-82
2021/06/14 03:24:03;;;;;;;26.05;10.52;;;;;;;10.06;100.00;102189.78;5275784;28;20032;-82
2021/06/14 03:26:38;;;;;;;21.02;9.60;;;;;;;10.00;100.00;102184.09;5276361;28;20115;-82
2021/06/14 03:29:10;;;;;;;27.35;10.18;;;;;;;9.94;100.00;102180.09;5274806;28;20058;-82
2021/06/14 03:31:41;;;;;;;21.05;8.90;;;;;;;9.92;100.00;102178.50;5265351;28;20031;-82
2021/06/14 03:34:13;;;;;;;24.85;10.07;;;;;;;9.88;100.00;102180.59;5275399;28;20020;-82
2021/06/14 03:36:46;;;;;;;24.60;10.38;;;;;;;9.86;100.00;102186.09;5276077;28;20053;-82
2021/06/14 03:39:17;;;;;;;27.70;9.85;;;;;;;9.85;100.00;102175.50;5275830;28;20183;-81
2021/06/14 03:41:50;;;;;;;26.10;10.15;;;;;;;9.86;100.00;102178.06;5271461;28;20016;-81
2021/06/14 03:44:21;;;;;;;26.13;10.68;;;;;;;9.89;100.00;102178.75;5275434;28;20012;-82
2021/06/14 03:46:51;;;;;;;23.88;10.30;;;;;;;9.92;100.00;102175.84;5275326;28;20032;-82
2021/06/14 03:49:22;;;;;;;20.58;9.43;;;;;;;9.94;100.00;102177.41;5275080;28;20012;-82
2021/06/14 03:51:52;;;;;;;20.70;9.20;;;;;;;9.97;100.00;102177.13;5274183;28;20032;-82
2021/06/14 03:54:23;;;;;;;27.10;11.18;;;;;;;9.95;100.00;102184.47;5273976;28;20144;-82
2021/06/14 03:56:53;;;;;;;23.50;10.20;;;;;;;9.97;100.00;102181.66;5275119;28;20483;-82
2021/06/14 03:59:24;;;;;;;28.73;10.82;;;;;;;9.99;100.00;102187.72;5278863;28;20016;-82
2021/06/14 04:01:54;;;;;;;29.95;11.10;;;;;;;10.03;100.00;102186.50;5270480;28;20055;-82
2021/06/14 04:07:01;;;;;;;28.80;11.80;;;;;;;10.10;100.00;102182.31;5257111;28;20052;-81
2021/06/14 04:09:32;;;;;;;30.20;11.88;;;;;;;10.15;100.00;102189.97;5269575;28;20512;-82
2021/06/14 04:12:04;;;;;;;26.50;12.02;;;;;;;10.17;100.00;102190.69;5269336;28;20024;-81
2021/06/14 04:14:35;;;;;;;27.63;10.63;;;;;;;10.23;100.00;102192.84;5269475;28;20024;-82
2021/06/14 04:17:06;;;;;;;22.85;10.15;;;;;;;10.29;100.00;102192.34;5251021;28;20058;-81
2021/06/14 04:19:37;;;;;;;27.10;10.43;;;;;;;10.37;100.00;102190.72;5267846;28;20032;-81
2021/06/14 04:22:07;;;;;;;30.65;10.63;;;;;;;10.43;100.00;102189.31;5268654;28;20027;-82
2021/06/14 04:24:38;;;;;;;29.38;10.70;;;;;;;10.49;100.00;102187.94;5268698;28;20387;-82
2021/06/14 04:27:09;;;;;;;25.75;9.60;;;;;;;10.57;100.00;102191.66;5268444;28;20098;-82
2021/06/14 04:29:39;;;;;;;20.15;10.02;;;;;;;10.65;100.00;102193.69;5264375;28;20017;-82
2021/06/14 04:32:10;;;;;;;19.98;9.35;;;;;;;10.74;100.00;102192.00;5261957;28;20016;-82
2021/06/14 04:34:40;;;;;;;25.85;11.20;;;;;;;10.83;100.00;102193.91;5267862;28;20115;-82
2021/06/14 04:37:11;;;;;;;24.95;9.63;;;;;;;10.95;100.00;102198.19;5267663;28;20688;-82
2021/06/14 04:39:42;;;;;;;19.20;9.60;;;;;;;11.04;100.00;102188.47;5249447;28;20489;-82
2021/06/14 04:42:12;;;;;;;21.30;10.40;;;;;;;11.13;100.00;102193.00;5263506;28;20032;-82
2021/06/14 04:44:43;;;;;;;26.38;10.68;;;;;;;11.23;100.00;102196.56;5267566;28;20019;-81
2021/06/14 04:47:13;;;;;;;29.38;10.75;;;;;;;11.35;100.00;102195.47;5266813;28;20023;-82
2021/06/14 04:49:44;;;;;;;28.50;11.55;;;;;;;11.49;100.00;102193.38;5266547;28;20031;-82
2021/06/14 04:52:14;;;;;;;27.38;11.23;;;;;;;11.65;100.00;102186.47;5269445;28;20024;-82
2021/06/14 04:54:45;;;;;;;25.98;11.23;;;;;;;11.86;100.00;102190.88;5271509;28;20047;-82
2021/06/14 04:57:16;;;;;;;24.38;11.32;;;;;;;12.07;100.00;102199.66;5279361;28;20054;-82
2021/06/14 04:59:46;;;;;;;24.30;10.48;;;;;;;12.24;100.00;102197.19;5277266;28;20019;-82
2021/06/14 05:02:17;;;;;;;28.42;11.27;;;;;;;12.37;100.00;102189.69;5271317;28;20410;-82
2021/06/14 05:04:48;;;;;;;29.98;10.38;;;;;;;12.50;100.00;102184.84;5271342;28;20423;-82
2021/06/14 05:07:18;;;;;;;28.55;11.13;;;;;;;12.61;100.00;102187.34;5270713;28;20062;-82
2021/06/14 05:09:50;;;;;;;26.90;10.68;;;;;;;12.74;100.00;102184.31;5271135;28;20127;-82
2021/06/14 05:12:20;;;;;;;26.52;11.02;;;;;;;12.87;100.00;102192.06;5270116;28;20063;-82
2021/06/14 05:14:51;;;;;;;23.92;10.15;;;;;;;13.02;100.00;102190.56;5269698;28;20048;-82
2021/06/14 05:17:21;;;;;;;30.52;12.30;;;;;;;13.23;100.00;102198.44;5268786;28;20111;-82
2021/06/14 05:19:52;;;;;;;21.17;9.63;;;;;;;13.57;100.00;102200.50;5250483;28;20098;-82
2021/06/14 05:22:22;;;;;;;21.13;10.00;;;;;;;14.73;100.00;102200.25;5268221;28;20032;-82
2021/06/14 05:24:53;;;;;;;22.50;8.38;;;;;;;16.62;100.00;102198.66;5267133;28;20103;-82
2021/06/14 05:27:24;;;;;;;15.98;8.63;;;;;;;18.51;100.00;102210.94;5266465;28;20437;-82
2021/06/14 05:29:54;;;;;;;15.75;8.70;;;;;;;19.65;100.00;102209.56;5259979;28;20067;-82
2021/06/14 05:32:25;;;;;;;24.65;9.77;;;;;;;20.49;100.00;102215.16;5261882;28;20073;-83
2021/06/14 05:34:55;;;;;;;23.15;8.70;;;;;;;21.19;100.00;102216.81;5266159;28;20082;-83
2021/06/14 05:37:25;;;;;;;20.30;7.85;;;;;;;22.11;97.36;102222.75;5265355;28;20024;-83
2021/06/14 05:39:56;;;;;;;15.85;7.32;;;;;;;22.67;75.08;102225.03;5265808;28;20020;-83
2021/06/14 05:42:26;;;;;;;16.40;7.53;;;;;;;22.92;78.07;102225.22;5265431;28;20099;-83
2021/06/14 05:44:57;;;;;;;17.48;7.25;;;;;;;23.20;77.61;102230.38;5265899;28;20016;-83
2021/06/14 05:47:27;;;;;;;16.55;7.60;;;;;;;23.49;69.74;102223.50;5265550;28;20093;-83
2021/06/14 05:49:58;;;;;;;15.43;7.22;;;;;;;23.86;63.54;102223.75;5265870;28;20019;-83
2021/06/14 05:52:29;;;;;;;16.52;7.60;;;;;;;23.67;62.34;102222.81;5265570;28;20382;-83
2021/06/14 05:54:59;;;;;;;15.77;7.93;;;;;;;23.53;61.82;102222.00;5247235;28;20098;-83
2021/06/14 05:57:30;;;;;;;23.08;7.55;;;;;;;23.85;62.62;102216.59;5265200;28;20028;-83
2021/06/14 06:00:00;;;;;;;19.45;7.68;;;;;;;23.90;58.30;102220.34;5265162;28;20433;-83
2021/06/14 06:02:31;;;;;;;16.42;6.60;;;;;;;24.27;59.53;102212.22;5265316;28;20100;-83
2021/06/14 06:05:01;;;;;;;17.15;7.15;;;;;;;24.52;57.54;102218.56;5265311;28;20391;-83
2021/06/14 06:07:32;;;;;;;20.83;7.05;;;;;;;24.85;56.44;102211.91;5265259;28;20105;-83
2021/06/14 06:10:07;;;;;;;14.40;6.95;;;;;;;24.94;56.17;102216.00;5264958;28;20028;-83
2021/06/14 06:12:39;;;;;;;18.55;7.13;;;;;;;24.83;56.29;102211.28;5265165;28;20023;-83
2021/06/14 06:15:13;;;;;;;16.98;6.93;;;;;;;24.80;55.85;102203.50;5265486;28;20438;-83
2021/06/14 06:17:45;;;;;;;14.70;7.38;;;;;;;24.67;57.12;102207.22;5264479;28;20036;-83
2021/06/14 06:20:17;;;;;;;16.00;7.28;;;;;;;24.73;57.28;102200.00;5265016;28;20531;-83
2021/06/14 06:22:47;;;;;;;14.30;6.45;;;;;;;25.15;57.13;102200.16;5265205;28;20040;-83
2021/06/14 06:25:21;;;;;;;15.90;7.15;;;;;;;25.36;56.71;102202.41;5265040;28;20078;-83
2021/06/14 06:27:51;;;;;;;15.13;6.53;;;;;;;25.74;57.07;102199.31;5264760;28;20081;-84
2021/06/14 06:30:25;;;;;;;19.85;7.22;;;;;;;25.81;54.33;102193.75;5254986;28;20028;-83
2021/06/14 06:32:56;;;;;;;10.98;6.65;;;;;;;25.66;53.73;102196.91;5252139;28;20024;-83
2021/06/14 06:35:26;;;;;;;16.27;6.57;;;;;;;25.74;53.54;102190.22;5268644;28;20023;-82
2021/06/14 06:37:57;;;;;;;13.07;6.30;;;;;;;25.73;54.30;102191.31;5265043;28;20111;-83
2021/06/14 06:40:28;;;;;;;10.20;6.00;;;;;;;26.51;49.75;102190.28;5265026;28;20036;-83
2021/06/14 06:42:58;;;;;;;15.77;6.30;;;;;;;26.02;52.52;102193.19;5260642;28;20130;-83
2021/06/14 06:45:29;;;;;;;15.63;7.05;;;;;;;25.28;54.46;102192.59;5264774;28;20023;-83
2021/06/14 06:48:01;;;;;;;8.30;5.53;;;;;;;25.05;56.98;102187.78;5265078;28;20074;-82
2021/06/14 06:50:31;;;;;;;15.75;5.43;;;;;;;24.71;58.74;102177.44;5269595;28;20065;-82
2021/06/14 06:53:03;;;;;;;12.10;5.72;;;;;;;24.71;57.90;102182.94;5268564;28;20027;-83
2021/06/14 06:55:33;;;;;;;10.52;5.88;;;;;;;24.39;65.11;102183.03;5264698;28;20020;-82
2021/06/14 06:58:04;;;;;;;15.85;5.78;;;;;;;23.87;65.04;102189.78;5278411;28;20024;-82
2021/06/14 07:00:34;;;;;;;16.27;5.20;;;;;;;23.44;68.38;102176.75;5265141;28;20102;-83
2021/06/14 07:03:05;;;;;;;15.18;5.90;;;;;;;23.10;76.41;102176.09;5265333;28;20085;-82
2021/06/14 07:05:36;;;;;;;17.00;5.50;;;;;;;23.02;85.58;102176.34;5265110;28;20034;-83
2021/06/14 07:08:07;;;;;;;12.07;4.50;;;;;;;22.58;87.73;102172.44;5265731;28;20031;-82
2021/06/14 07:10:38;;;;;;;12.63;5.53;;;;;;;22.46;94.74;102166.81;5265709;28;20431;-82
2021/06/14 07:13:09;;;;;;;12.50;5.00;;;;;;;22.35;90.89;102164.72;5265511;28;20024;-82
2021/06/14 07:15:39;;;;;;;12.07;4.85;;;;;;;22.29;78.68;102161.97;5265433;28;20020;-82
2021/06/14 07:18:10;;;;;;;12.13;4.72;;;;;;;22.26;92.29;102156.94;5246495;28;20024;-82
2021/06/14 07:20:40;;;;;;;16.27;5.13;;;;;;;22.04;83.60;102169.94;5264696;28;20020;-82
2021/06/14 07:23:11;;;;;;;8.60;4.45;;;;;;;22.03;74.47;102168.28;5272085;28;20048;-82
2021/06/14 07:25:41;;;;;;;9.88;4.63;;;;;;;22.03;87.92;102168.28;5284279;28;20020;-82
2021/06/14 07:28:12;;;;;;;12.23;4.85;;;;;;;22.01;83.63;102164.91;5280621;28;20021;-85
2021/06/14 07:30:42;;;;;;;16.90;6.03;;;;;;;22.19;96.59;102166.00;5265277;28;20502;-82
2021/06/14 07:33:13;;;;;;;9.63;4.72;;;;;;;22.33;77.65;102169.53;5275903;28;20024;-82
2021/06/14 07:35:43;;;;;;;11.55;4.85;;;;;;;22.20;83.15;102166.84;5276798;28;20022;-83
2021/06/14 07:38:15;;;;;;;12.95;5.03;;;;;;;22.55;91.28;102169.31;5277120;28;20032;-82
2021/06/14 07:40:45;;;;;;;11.95;4.97;;;;;;;22.64;86.44;102168.88;5276538;28;20059;-82
2021/06/14 07:43:17;;;;;;;13.32;5.22;;;;;;;22.77;83.24;102162.50;5271349;28;20479;-82
2021/06/14 07:45:48;;;;;;;7.97;4.10;;;;;;;22.86;77.64;102168.59;5276596;28;20287;-82
2021/06/14 07:48:19;;;;;;;12.38;4.85;;;;;;;23.04;74.84;102159.69;5275735;28;20059;-82
2021/06/14 07:50:51;;;;;;;13.77;5.07;;;;;;;22.98;74.29;102156.78;5268118;28;20068;-82
2021/06/14 07:53:22;;;;;;;9.00;4.45;;;;;;;23.15;75.50;102161.78;5268049;28;20020;-83
2021/06/14 07:55:55;;;;;;;16.60;5.15;;;;;;;23.34;79.36;102159.97;5269691;28;20536;-83
2021/06/14 07:58:25;;;;;;;10.85;4.68;;;;;;;23.50;68.78;102151.25;5285932;28;20391;-82
2021/06/14 08:00:56;;;;;;;13.98;4.93;;;;;;;23.65;70.44;102146.31;5254414;28;20035;-82
2021/06/14 08:03:29;;;;;;;9.90;4.78;;;;;;;23.93;71.81;102132.16;5271641;28;20451;-82
2021/06/14 08:06:00;;;;;;;12.93;4.60;;;;;;;23.80;68.03;102145.13;5270797;28;20024;-82
2021/06/14 08:08:31;;;;;;;9.98;4.78;;;;;;;23.91;73.99;102136.22;5271683;28;20027;-82
2021/06/14 08:11:01;;;;;;;11.82;4.03;;;;;;;23.82;67.80;102134.81;5271737;28;20024;-82
2021/06/14 08:13:32;;;;;;;15.60;4.25;;;;;;;23.89;68.22;102135.59;5270485;28;20031;-82
2021/06/14 08:16:03;;;;;;;12.25;4.90;;;;;;;24.06;66.78;102131.22;5271019;28;20012;-82
2021/06/14 08:18:48;;;;;;;17.27;4.32;;;;;;;24.27;67.28;102125.31;5270945;28;20377;-82
2021/06/14 08:26:38;;;;;;;8.88;4.60;;;;;;;24.51;62.49;102117.31;5270017;28;20023;-82
2021/06/14 08:29:09;;;;;;;14.15;4.80;;;;;;;24.44;62.64;102114.63;5269095;28;20035;-82
2021/06/14 08:31:41;;;;;;;11.43;4.38;;;;;;;24.75;64.83;102108.16;5269762;28;20020;-82
2021/06/14 08:34:11;;;;;;;12.93;4.53;;;;;;;24.95;63.66;102110.63;5269768;28;20554;-82
2021/06/14 08:36:42;;;;;;;11.27;4.28;;;;;;;25.09;63.34;102113.22;5269531;28;20143;-82
2021/06/14 08:39:13;;;;;;;12.95;4.50;;;;;;;25.17;59.79;102094.50;5268902;28;20024;-82
2021/06/14 08:41:45;;;;;;;11.77;4.20;;;;;;;25.39;60.59;102102.22;5265612;28;20039;-82
2021/06/14 08:44:17;;;;;;;9.50;3.72;;;;;;;25.70;59.28;102104.66;5255260;28;20069;-82
2021/06/14 08:46:54;;;;;;;12.05;4.30;;;;;;;25.83;57.41;102093.47;5268378;28;20031;-82
2021/06/14 08:49:25;;;;;;;12.38;3.92;;;;;;;25.93;59.23;102095.66;5267889;28;20032;-82
2021/06/14 08:51:58;;;;;;;10.50;4.68;;;;;;;25.83;54.42;102095.41;5267544;28;21216;-82
2021/06/14 08:54:28;;;;;;;18.88;4.10;;;;;;;26.09;58.11;102097.66;5280673;28;20035;-82
2021/06/14 08:56:59;;;;;;;11.00;3.83;;;;;;;26.02;61.68;102087.88;5290068;28;20398;-82
2021/06/14 08:59:30;;;;;;;11.10;3.78;;;;;;;26.18;55.01;102089.91;5289882;28;20024;-82
2021/06/14 09:02:01;;;;;;;9.32;3.90;;;;;;;26.13;58.11;102086.19;5282166;28;20024;-83
2021/06/14 09:04:35;;;;;;;12.23;3.75;;;;;;;26.25;60.87;102093.34;5284494;28;20028;-83
2021/06/14 09:07:06;;;;;;;11.38;3.70;;;;;;;26.65;57.38;102089.84;5288122;28;20032;-82
2021/06/14 09:09:36;;;;;;;11.45;4.30;;;;;;;26.50;52.04;102092.25;5283077;28;20027;-82
2021/06/14 09:12:07;;;;;;;11.23;4.32;;;;;;;26.52;52.68;102090.13;5268426;28;20020;-83
2021/06/14 09:14:40;;;;;;;13.75;4.13;;;;;;;26.69;57.19;102095.69;5267469;28;20399;-82
2021/06/14 09:17:14;;;;;;;9.25;3.63;;;;;;;26.50;52.56;102095.00;5267507;28;20114;-83
2021/06/14 09:19:56;;;;;;;11.15;3.85;;;;;;;26.69;54.65;102096.53;5267187;28;20059;-83
2021/06/14 09:22:27;;;;;;;8.45;4.03;;;;;;;26.83;52.99;102088.84;5267256;28;20031;-82
2021/06/14 09:25:10;;;;;;;15.10;4.00;;;;;;;27.03;56.99;102085.63;5267154;28;20053;-83
2021/06/14 09:27:49;;;;;;;8.80;3.33;;;;;;;27.24;53.30;102082.19;5267116;28;20016;-83
2021/06/14 09:30:30;;;;;;;13.32;3.90;;;;;;;27.07;52.02;102082.19;5266508;28;20383;-82
2021/06/14 09:33:23;;;;;;;9.77;3.72;;;;;;;27.27;51.24;102081.72;5254228;28;20144;-83
2021/06/14 09:36:05;;;;;;;7.38;3.42;;;;;;;27.56;52.45;102074.25;5265920;28;20061;-82
2021/06/14 09:38:35;;;;;;;9.98;3.65;;;;;;;27.78;53.73;102066.06;5266766;28;20194;-83
2021/06/14 09:41:13;;;;;;;8.32;3.17;;;;;;;27.86;47.97;102078.56;5266012;28;20479;-83
2021/06/14 09:43:46;;;;;;;11.50;3.50;;;;;;;27.85;48.04;102068.63;5265852;28;20019;-82
2021/06/14 09:46:25;;;;;;;10.07;3.60;;;;;;;27.88;49.43;102071.72;5265956;28;20047;-82
2021/06/14 09:49:04;;;;;;;7.35;3.35;;;;;;;27.72;44.62;102066.25;5266002;28;20031;-82
2021/06/14 09:51:35;;;;;;;9.25;2.85;;;;;;;28.10;48.09;102068.16;5247934;28;20073;-84
2021/06/14 09:54:05;;;;;;;5.78;3.00;;;;;;;28.32;42.32;102069.06;5267188;28;20032;-83
2021/06/14 09:56:36;;;;;;;10.25;3.33;;;;;;;28.08;43.86;102068.44;5267234;28;20032;-83
2021/06/14 09:59:08;;;;;;;10.98;4.30;;;;;;;28.12;44.49;102077.88;5277322;28;20530;-83
2021/06/14 10:01:39;;;;;;;11.50;3.35;;;;;;;28.35;44.98;102059.44;5265425;28;20027;-83
2021/06/14 10:04:09;;;;;;;13.65;4.32;;;;;;;28.26;46.27;102064.53;5265494;28;20024;-83
2021/06/14 10:06:43;;;;;;;7.25;3.45;;;;;;;28.42;43.56;102059.28;5265413;28;20427;-83
2021/06/14 10:09:16;;;;;;;7.13;2.83;;;;;;;28.47;45.61;102057.41;5264665;28;20020;-83
2021/06/14 10:11:46;;;;;;;7.13;2.83;;;;;;;28.74;43.92;102051.91;5265385;28;20042;-83
2021/06/14 10:14:20;;;;;;;11.82;4.18;;;;;;;28.73;43.41;102050.25;5264852;28;20020;-83
2021/06/14 10:16:53;;;;;;;8.65;3.38;;;;;;;28.85;40.78;102053.69;5264572;28;20028;-83
2021/06/14 10:19:26;;;;;;;7.90;2.85;;;;;;;28.81;43.52;102052.53;5264536;28;20069;-83
2021/06/14 10:21:58;;;;;;;10.02;3.30;;;;;;;28.94;40.06;102059.63;5265126;28;20026;-83
2021/06/14 10:24:28;;;;;;;7.75;3.25;;;;;;;28.62;38.68;102049.31;5264867;28;20020;-83
2021/06/14 10:26:59;;;;;;;12.35;3.58;;;;;;;28.80;44.03;102042.59;5265244;28;20429;-84
2021/06/14 10:29:30;;;;;;;6.78;3.00;;;;;;;28.93;44.36;102051.56;5264771;28;20048;-83
2021/06/14 10:32:01;;;;;;;11.32;3.70;;;;;;;29.12;41.44;102039.94;5264647;28;20024;-83
2021/06/14 10:34:31;;;;;;;10.93;3.65;;;;;;;29.17;41.86;102041.91;5251264;28;20024;-83
2021/06/14 10:37:02;;;;;;;10.18;3.63;;;;;;;29.22;41.91;102032.81;5264613;28;20020;-83
2021/06/14 10:39:33;;;;;;;11.63;3.45;;;;;;;29.47;40.56;102035.81;5264697;28;20027;-83
2021/06/14 10:42:04;;;;;;;14.32;3.40;;;;;;;29.75;41.97;102044.88;5261337;28;20035;-83
2021/06/14 10:44:35;;;;;;;7.78;3.00;;;;;;;29.40;39.67;102036.00;5264292;28;20036;-83
2021/06/14 10:47:08;;;;;;;12.25;3.05;;;;;;;29.31;40.23;102036.75;5264698;28;20413;-83
2021/06/14 10:49:40;;;;;;;11.27;3.17;;;;;;;29.50;38.89;102026.97;5264872;28;20059;-83
2021/06/14 10:52:10;;;;;;;7.82;2.72;;;;;;;29.70;38.46;102025.47;5246637;28;20567;-83
2021/06/14 10:54:44;;;;;;;5.97;3.10;;;;;;;29.80;41.38;102031.06;5264384;28;20012;-83
2021/06/14 10:57:15;;;;;;;5.07;2.90;;;;;;;30.03;39.81;102025.13;5272354;28;20020;-83
2021/06/14 10:59:46;;;;;;;9.40;2.92;;;;;;;30.02;36.10;102029.00;5270155;28;20031;-83
2021/06/14 11:02:19;;;;;;;7.18;2.42;;;;;;;29.90;37.01;102031.13;5264633;28;20016;-83
2021/06/14 11:04:50;;;;;;;4.57;2.50;;;;;;;29.65;37.95;102029.88;5264683;28;20026;-83
2021/06/14 11:07:28;;;;;;;6.70;3.15;;;;;;;29.93;36.49;102025.09;5264559;28;20032;-83
2021/06/14 11:09:59;;;;;;;5.20;2.92;;;;;;;29.50;37.04;102017.84;5264139;28;20109;-83
2021/06/14 11:12:29;;;;;;;5.03;3.13;;;;;;;29.36;37.97;102022.97;5264538;28;20024;-83
2021/06/14 11:15:10;;;;;;;8.25;2.90;;;;;;;29.60;39.56;102015.19;5264570;28;20017;-83
2021/06/14 11:17:40;;;;;;;8.65;3.08;;;;;;;29.82;37.82;102021.44;5264017;28;20035;-83
2021/06/14 11:20:12;;;;;;;6.20;2.83;;;;;;;29.93;35.79;102016.78;5264252;28;20024;-83
2021/06/14 11:22:49;;;;;;;6.90;3.05;;;;;;;29.78;39.53;102025.00;5264598;28;20459;-83
2021/06/14 11:25:27;;;;;;;5.60;2.78;;;;;;;29.89;39.70;102010.94;5264529;28;20470;-84
2021/06/14 11:28:01;;;;;;;6.05;2.80;;;;;;;29.93;39.79;102002.97;5264273;28;20023;-83
2021/06/14 11:30:34;;;;;;;6.33;2.73;;;;;;;29.96;39.36;102007.09;5267146;28;20498;-83
2021/06/14 11:33:08;;;;;;;6.03;2.80;;;;;;;29.84;38.25;102007.31;5268379;28;20055;-83
2021/06/14 11:35:39;;;;;;;11.75;3.60;;;;;;;30.07;38.16;102009.66;5268169;28;20479;-83
2021/06/14 11:38:18;;;;;;;8.10;3.28;;;;;;;30.25;37.68;102002.03;5268144;28;20028;-83
2021/06/14 11:40:56;;;;;;;8.43;2.67;;;;;;;30.48;36.08;102006.28;5267620;28;20024;-83
2021/06/14 11:43:26;;;;;;;6.95;3.42;;;;;;;30.28;36.77;102007.03;5264382;28;20024;-83
2021/06/14 11:45:57;;;;;;;6.88;2.83;;;;;;;30.32;39.60;101997.88;5268169;28;20026;-84